createdAt,value
2022-08-09T00:00:24.959Z,1022.24
2022-08-09T00:01:24.986Z,1022.20
2022-08-09T00:02:25.026Z,1022.20
2022-08-09T00:04:03.532Z,1022.19
2022-08-09T00:04:34.649Z,1022.20
2022-08-09T00:06:19.549Z,1022.22
2022-08-09T00:06:24.860Z,1022.17
2022-08-09T00:07:29.687Z,1022.19
2022-08-09T00:08:32.389Z,1022.19
2022-08-09T00:09:24.812Z,1022.18
2022-08-09T00:10:24.933Z,1022.14
2022-08-09T00:11:27.707Z,1022.15
2022-08-09T00:12:24.866Z,1022.12
2022-08-09T00:13:24.756Z,1022.13
2022-08-09T00:14:30.074Z,1022.15
2022-08-09T00:15:26.739Z,1022.11
2022-08-09T00:16:25.920Z,1022.12
2022-08-09T00:18:05.513Z,1022.12
2022-08-09T00:18:24.653Z,1022.13
2022-08-09T00:19:24.649Z,1022.13
2022-08-09T00:20:24.625Z,1022.13
2022-08-09T00:21:24.604Z,1022.11
2022-08-09T00:22:24.634Z,1022.07
2022-08-09T00:23:56.554Z,1022.11
2022-08-09T00:24:24.550Z,1022.11
2022-08-09T00:25:32.887Z,1022.11
2022-08-09T00:26:29.988Z,1022.13
2022-08-09T00:27:24.501Z,1022.14
2022-08-09T00:28:26.507Z,1022.13
2022-08-09T00:30:10.237Z,1022.16
2022-08-09T00:30:26.757Z,1022.16
2022-08-09T00:31:58.162Z,1022.18
2022-08-09T00:32:27.248Z,1022.15
2022-08-09T00:33:49.092Z,1022.16
2022-08-09T00:34:24.408Z,1022.17
2022-08-09T00:35:24.378Z,1022.15
2022-08-09T00:36:29.649Z,1022.17
2022-08-09T00:37:24.330Z,1022.19
2022-08-09T00:38:24.311Z,1022.17
2022-08-09T00:40:12.838Z,1022.18
2022-08-09T00:40:30.961Z,1022.19
2022-08-09T00:44:13.637Z,1022.24
2022-08-09T00:44:16.958Z,1022.22
2022-08-09T00:44:25.649Z,1022.23
2022-08-09T00:44:27.423Z,1022.23
2022-08-09T00:45:24.209Z,1022.22
2022-08-09T00:46:55.514Z,1022.23
2022-08-09T00:47:25.057Z,1022.23
2022-08-09T00:48:24.154Z,1022.18
2022-08-09T00:49:24.151Z,1022.18
2022-08-09T00:50:24.110Z,1022.19
2022-08-09T00:51:24.089Z,1022.21
2022-08-09T00:52:30.572Z,1022.17
2022-08-09T00:53:24.577Z,1022.19
2022-08-09T00:54:35.201Z,1022.17
2022-08-09T00:56:03.094Z,1022.17
2022-08-09T00:56:24.003Z,1022.19
2022-08-09T00:57:24.623Z,1022.15
2022-08-09T00:58:27.615Z,1022.16
2022-08-09T00:59:40.606Z,1022.15
2022-08-09T01:00:23.938Z,1022.18
2022-08-09T01:01:23.944Z,1022.14
2022-08-09T01:02:23.944Z,1022.16
2022-08-09T01:03:23.903Z,1022.21
2022-08-09T01:04:23.869Z,1022.17
2022-08-09T01:05:51.507Z,1022.18
2022-08-09T01:06:25.525Z,1022.21
2022-08-09T01:07:37.944Z,1022.22
2022-08-09T01:08:26.735Z,1022.20
2022-08-09T01:09:23.839Z,1022.19
2022-08-09T01:10:25.968Z,1022.20
2022-08-09T01:11:23.746Z,1022.16
2022-08-09T01:12:23.822Z,1022.18
2022-08-09T01:13:23.710Z,1022.20
2022-08-09T01:14:23.711Z,1022.20
2022-08-09T01:15:23.678Z,1022.14
2022-08-09T01:16:23.673Z,1022.15
2022-08-09T01:17:23.641Z,1022.15
2022-08-09T01:18:29.965Z,1022.14
2022-08-09T01:19:40.233Z,1022.15
2022-08-09T01:20:23.591Z,1022.16
2022-08-09T01:21:24.828Z,1022.15
2022-08-09T01:22:23.559Z,1022.16
2022-08-09T01:24:01.748Z,1022.16
2022-08-09T01:24:23.521Z,1022.20
2022-08-09T01:25:23.507Z,1022.17
2022-08-09T01:26:23.490Z,1022.23
2022-08-09T01:27:23.486Z,1022.20
2022-08-09T01:28:23.475Z,1022.23
2022-08-09T01:29:23.434Z,1022.20
2022-08-09T01:30:33.562Z,1022.20
2022-08-09T01:31:40.943Z,1022.20
2022-08-09T01:32:31.771Z,1022.16
2022-08-09T01:33:23.383Z,1022.17
2022-08-09T01:34:23.347Z,1022.20
2022-08-09T01:35:38.810Z,1022.20
2022-08-09T01:36:23.310Z,1022.21
2022-08-09T01:37:42.900Z,1022.26
2022-08-09T01:38:23.499Z,1022.24
2022-08-09T01:39:23.574Z,1022.27
2022-08-09T01:40:28.499Z,1022.28
2022-08-09T01:41:25.893Z,1022.28
2022-08-09T01:42:23.210Z,1022.27
2022-08-09T01:43:24.171Z,1022.28
2022-08-09T01:44:23.191Z,1022.30
2022-08-09T01:45:23.158Z,1022.28
2022-08-09T01:46:24.811Z,1022.25
2022-08-09T01:47:23.123Z,1022.26
2022-08-09T01:48:24.089Z,1022.24
2022-08-09T01:49:24.371Z,1022.24
2022-08-09T01:50:29.978Z,1022.22
2022-08-09T01:51:23.195Z,1022.24
2022-08-09T01:52:23.040Z,1022.20
2022-08-09T01:53:23.034Z,1022.23
2022-08-09T01:54:23.005Z,1022.20
2022-08-09T01:55:22.983Z,1022.20
2022-08-09T01:56:22.970Z,1022.21
2022-08-09T01:57:22.949Z,1022.20
2022-08-09T01:58:24.304Z,1022.19
2022-08-09T01:59:22.992Z,1022.22
2022-08-09T02:00:35.663Z,1022.22
2022-08-09T02:01:30.522Z,1022.21
2022-08-09T02:02:22.861Z,1022.22
2022-08-09T02:03:22.841Z,1022.26
2022-08-09T02:04:22.841Z,1022.27
2022-08-09T02:05:38.126Z,1022.22
2022-08-09T02:06:22.791Z,1022.23
2022-08-09T02:08:35.337Z,1022.26
2022-08-09T02:08:40.327Z,1022.26
2022-08-09T02:09:22.739Z,1022.25
2022-08-09T02:10:29.846Z,1022.25
2022-08-09T02:11:23.684Z,1022.24
2022-08-09T02:12:22.688Z,1022.23
2022-08-09T02:13:26.314Z,1022.21
2022-08-09T02:14:26.222Z,1022.24
2022-08-09T02:15:22.636Z,1022.27
2022-08-09T02:16:33.630Z,1022.24
2022-08-09T02:17:59.291Z,1022.24
2022-08-09T02:18:22.579Z,1022.25
2022-08-09T02:19:22.559Z,1022.26
2022-08-09T02:20:26.727Z,1022.27
2022-08-09T02:21:22.690Z,1022.27
2022-08-09T02:22:27.264Z,1022.25
2022-08-09T02:23:23.146Z,1022.30
2022-08-09T02:24:26.179Z,1022.26
2022-08-09T02:25:22.456Z,1022.28
2022-08-09T02:26:25.180Z,1022.24
2022-08-09T02:27:43.059Z,1022.25
2022-08-09T02:28:24.283Z,1022.24
2022-08-09T02:29:22.389Z,1022.19
2022-08-09T02:30:22.383Z,1022.17
2022-08-09T02:31:22.351Z,1022.14
2022-08-09T02:32:22.337Z,1022.18
2022-08-09T02:33:23.102Z,1022.19
2022-08-09T02:34:25.820Z,1022.15
2022-08-09T02:35:26.131Z,1022.19
2022-08-09T02:36:22.276Z,1022.15
2022-08-09T02:37:22.256Z,1022.16
2022-08-09T02:38:28.546Z,1022.19
2022-08-09T02:39:33.497Z,1022.11
2022-08-09T02:40:27.021Z,1022.13
2022-08-09T02:41:22.177Z,1022.12
2022-08-09T02:42:24.822Z,1022.13
2022-08-09T02:43:22.165Z,1022.16
2022-08-09T02:44:30.277Z,1022.16
2022-08-09T02:45:22.118Z,1022.14
2022-08-09T02:46:22.084Z,1022.16
2022-08-09T02:47:22.067Z,1022.11
2022-08-09T02:48:30.759Z,1022.10
2022-08-09T02:49:38.172Z,1022.13
2022-08-09T02:50:22.037Z,1022.12
2022-08-09T02:51:22.007Z,1022.14
2022-08-09T02:52:21.995Z,1022.12
2022-08-09T02:53:26.367Z,1022.11
2022-08-09T02:54:21.955Z,1022.13
2022-08-09T02:55:21.931Z,1022.13
2022-08-09T02:56:21.927Z,1022.14
2022-08-09T02:57:23.594Z,1022.10
2022-08-09T02:58:32.277Z,1022.09
2022-08-09T02:59:26.506Z,1022.13
2022-08-09T03:00:26.004Z,1022.11
2022-08-09T03:01:29.392Z,1022.11
2022-08-09T03:02:21.841Z,1022.12
2022-08-09T03:03:37.143Z,1022.11
2022-08-09T03:04:21.771Z,1022.11
2022-08-09T03:05:21.759Z,1022.11
2022-08-09T03:06:21.740Z,1022.08
2022-08-09T03:07:21.736Z,1022.12
2022-08-09T03:08:21.696Z,1022.12
2022-08-09T03:09:21.684Z,1022.11
2022-08-09T03:10:21.661Z,1022.10
2022-08-09T03:11:29.726Z,1022.12
2022-08-09T03:12:21.642Z,1022.11
2022-08-09T03:13:21.609Z,1022.12
2022-08-09T03:14:21.773Z,1022.12
2022-08-09T03:15:23.104Z,1022.10
2022-08-09T03:16:21.562Z,1022.12
2022-08-09T03:17:26.704Z,1022.09
2022-08-09T03:18:31.186Z,1022.11
2022-08-09T03:19:52.850Z,1022.13
2022-08-09T03:20:21.502Z,1022.13
2022-08-09T03:21:25.920Z,1022.12
2022-08-09T03:22:25.644Z,1022.15
2022-08-09T03:23:24.469Z,1022.09
2022-08-09T03:24:31.648Z,1022.10
2022-08-09T03:25:26.314Z,1022.13
2022-08-09T03:26:21.377Z,1022.12
2022-08-09T03:27:22.221Z,1022.10
2022-08-09T03:28:21.363Z,1022.16
2022-08-09T03:29:22.660Z,1022.13
2022-08-09T03:30:29.782Z,1022.16
2022-08-09T03:31:22.883Z,1022.15
2022-08-09T03:32:21.267Z,1022.17
2022-08-09T03:33:21.275Z,1022.16
2022-08-09T03:34:21.253Z,1022.14
2022-08-09T03:35:24.589Z,1022.15
2022-08-09T03:36:21.206Z,1022.15
2022-08-09T03:37:55.177Z,1022.15
2022-08-09T03:38:28.786Z,1022.16
2022-08-09T03:39:21.873Z,1022.14
2022-08-09T03:40:21.155Z,1022.14
2022-08-09T03:41:21.107Z,1022.16
2022-08-09T03:42:21.096Z,1022.13
2022-08-09T03:43:21.093Z,1022.14
2022-08-09T03:44:21.055Z,1022.16
2022-08-09T03:46:05.049Z,1022.16
2022-08-09T03:46:29.199Z,1022.15
2022-08-09T03:47:21.005Z,1022.13
2022-08-09T03:48:30.769Z,1022.18
2022-08-09T03:49:21.246Z,1022.20
2022-08-09T03:50:27.768Z,1022.20
2022-08-09T03:51:43.940Z,1022.17
2022-08-09T03:52:20.947Z,1022.21
2022-08-09T03:53:20.907Z,1022.22
2022-08-09T03:54:29.615Z,1022.21
2022-08-09T03:55:20.875Z,1022.24
2022-08-09T03:56:20.845Z,1022.24
2022-08-09T03:57:21.104Z,1022.21
2022-08-09T03:58:21.187Z,1022.22
2022-08-09T03:59:27.301Z,1022.26
2022-08-09T04:00:20.792Z,1022.22
2022-08-09T04:01:20.757Z,1022.27
2022-08-09T04:02:26.778Z,1022.25
2022-08-09T04:03:35.333Z,1022.28
2022-08-09T04:04:20.722Z,1022.29
2022-08-09T04:05:27.834Z,1022.29
2022-08-09T04:06:20.684Z,1022.25
2022-08-09T04:07:20.650Z,1022.24
2022-08-09T04:08:28.946Z,1022.26
2022-08-09T04:09:48.004Z,1022.28
2022-08-09T04:10:20.981Z,1022.31
2022-08-09T04:11:20.576Z,1022.27
2022-08-09T04:12:30.392Z,1022.27
2022-08-09T04:13:24.804Z,1022.24
2022-08-09T04:14:53.917Z,1022.29
2022-08-09T04:15:42.678Z,1022.30
2022-08-09T04:16:21.606Z,1022.28
2022-08-09T04:17:20.466Z,1022.31
2022-08-09T04:18:21.492Z,1022.32
2022-08-09T04:19:42.799Z,1022.33
2022-08-09T04:20:20.408Z,1022.38
2022-08-09T04:21:20.417Z,1022.33
2022-08-09T04:22:20.374Z,1022.39
2022-08-09T04:23:23.374Z,1022.38
2022-08-09T04:24:20.356Z,1022.40
2022-08-09T04:25:20.321Z,1022.38
2022-08-09T04:26:20.305Z,1022.42
2022-08-09T04:27:22.081Z,1022.43
2022-08-09T04:28:34.146Z,1022.43
2022-08-09T04:29:20.268Z,1022.47
2022-08-09T04:30:20.954Z,1022.45
2022-08-09T04:31:20.217Z,1022.47
2022-08-09T04:32:31.446Z,1022.53
2022-08-09T04:33:20.178Z,1022.49
2022-08-09T04:34:30.695Z,1022.48
2022-08-09T04:35:21.734Z,1022.50
2022-08-09T04:36:20.145Z,1022.52
2022-08-09T04:37:20.107Z,1022.52
2022-08-09T04:38:20.090Z,1022.52
2022-08-09T04:39:20.121Z,1022.51
2022-08-09T04:40:36.174Z,1022.53
2022-08-09T04:41:23.436Z,1022.51
2022-08-09T04:42:20.014Z,1022.52
2022-08-09T04:43:20.017Z,1022.54
2022-08-09T04:44:19.977Z,1022.53
2022-08-09T04:45:20.544Z,1022.57
2022-08-09T04:46:36.426Z,1022.60
2022-08-09T04:47:19.928Z,1022.58
2022-08-09T04:48:19.910Z,1022.60
2022-08-09T04:49:30.164Z,1022.62
2022-08-09T04:50:19.891Z,1022.64
2022-08-09T04:51:19.863Z,1022.66
2022-08-09T04:52:21.968Z,1022.67
2022-08-09T04:53:19.823Z,1022.68
2022-08-09T04:54:19.808Z,1022.65
2022-08-09T04:55:19.782Z,1022.66
2022-08-09T04:56:20.063Z,1022.67
2022-08-09T04:57:23.735Z,1022.69
2022-08-09T04:58:19.729Z,1022.71
2022-08-09T04:59:22.660Z,1022.70
2022-08-09T05:00:19.705Z,1022.72
2022-08-09T05:01:19.678Z,1022.72
2022-08-09T05:02:19.684Z,1022.74
2022-08-09T05:03:40.078Z,1022.76
2022-08-09T05:04:19.657Z,1022.77
2022-08-09T05:05:32.518Z,1022.76
2022-08-09T05:06:27.334Z,1022.77
2022-08-09T05:07:19.981Z,1022.76
2022-08-09T05:08:19.573Z,1022.75
2022-08-09T05:09:19.538Z,1022.76
2022-08-09T05:10:19.522Z,1022.76
2022-08-09T05:11:19.501Z,1022.79
2022-08-09T05:12:21.078Z,1022.77
2022-08-09T05:13:19.486Z,1022.78
2022-08-09T05:14:19.451Z,1022.78
2022-08-09T05:15:24.854Z,1022.81
2022-08-09T05:16:19.424Z,1022.82
2022-08-09T05:18:36.878Z,1022.81
2022-08-09T05:18:39.912Z,1022.82
2022-08-09T05:19:23.548Z,1022.82
2022-08-09T05:20:19.358Z,1022.81
2022-08-09T05:21:24.661Z,1022.84
2022-08-09T05:22:36.297Z,1022.82
2022-08-09T05:23:54.965Z,1022.85
2022-08-09T05:24:19.286Z,1022.84
2022-08-09T05:25:19.285Z,1022.86
2022-08-09T05:26:22.297Z,1022.89
2022-08-09T05:27:19.222Z,1022.87
2022-08-09T05:28:19.212Z,1022.86
2022-08-09T05:29:21.160Z,1022.86
2022-08-09T05:30:19.542Z,1022.91
2022-08-09T05:31:19.149Z,1022.87
2022-08-09T05:32:19.128Z,1022.86
2022-08-09T05:33:19.117Z,1022.88
2022-08-09T05:34:19.099Z,1022.88
2022-08-09T05:35:19.100Z,1022.86
2022-08-09T05:36:19.064Z,1022.87
2022-08-09T05:37:19.045Z,1022.86
2022-08-09T05:38:21.652Z,1022.92
2022-08-09T05:39:28.261Z,1022.90
2022-08-09T05:40:19.655Z,1022.88
2022-08-09T05:41:19.007Z,1022.88
2022-08-09T05:42:21.462Z,1022.86
2022-08-09T05:43:18.939Z,1022.90
2022-08-09T05:44:22.217Z,1022.87
2022-08-09T05:45:18.919Z,1022.91
2022-08-09T05:46:18.891Z,1022.92
2022-08-09T05:47:18.872Z,1022.86
2022-08-09T05:48:18.844Z,1022.84
2022-08-09T05:50:23.257Z,1022.90
2022-08-09T05:50:30.292Z,1022.83
2022-08-09T05:51:46.248Z,1022.82
2022-08-09T05:52:18.781Z,1022.83
2022-08-09T05:53:21.865Z,1022.92
2022-08-09T05:54:18.744Z,1022.89
2022-08-09T05:55:20.867Z,1022.92
2022-08-09T05:56:18.735Z,1022.94
2022-08-09T05:57:19.332Z,1022.94
2022-08-09T05:58:18.675Z,1022.95
2022-08-09T05:59:18.666Z,1022.93
2022-08-09T06:00:19.392Z,1022.95
2022-08-09T06:01:18.635Z,1022.98
2022-08-09T06:02:18.634Z,1022.92
2022-08-09T06:03:19.736Z,1022.96
2022-08-09T06:04:23.647Z,1022.95
2022-08-09T06:05:18.564Z,1023.00
2022-08-09T06:06:18.535Z,1022.98
2022-08-09T06:07:21.353Z,1022.99
2022-08-09T06:08:19.813Z,1022.99
2022-08-09T06:09:40.590Z,1022.99
2022-08-09T06:10:18.465Z,1022.96
2022-08-09T06:11:18.456Z,1023.01
2022-08-09T06:12:18.432Z,1022.99
2022-08-09T06:13:20.556Z,1023.02
2022-08-09T06:14:18.396Z,1023.02
2022-08-09T06:15:18.379Z,1023.02
2022-08-09T06:16:18.359Z,1023.01
2022-08-09T06:17:18.347Z,1023.02
2022-08-09T06:18:18.345Z,1023.03
2022-08-09T06:19:18.313Z,1023.01
2022-08-09T06:20:18.421Z,1022.98
2022-08-09T06:21:18.273Z,1022.95
2022-08-09T06:22:18.277Z,1022.97
2022-08-09T06:23:18.240Z,1022.98
2022-08-09T06:24:18.241Z,1022.96
2022-08-09T06:25:18.225Z,1022.98
2022-08-09T06:26:21.356Z,1022.97
2022-08-09T06:27:18.171Z,1022.98
2022-08-09T06:28:18.176Z,1022.97
2022-08-09T06:29:18.145Z,1022.98
2022-08-09T06:30:18.123Z,1022.95
2022-08-09T06:31:18.099Z,1023.01
2022-08-09T06:32:59.458Z,1022.98
2022-08-09T06:33:39.681Z,1022.98
2022-08-09T06:34:18.074Z,1023.00
2022-08-09T06:35:18.044Z,1023.00
2022-08-09T06:36:18.021Z,1023.04
2022-08-09T06:37:18.030Z,1023.05
2022-08-09T06:38:17.980Z,1023.05
2022-08-09T06:39:18.029Z,1023.06
2022-08-09T06:40:24.021Z,1023.09
2022-08-09T06:41:19.266Z,1023.05
2022-08-09T06:42:17.922Z,1022.99
2022-08-09T06:43:17.901Z,1023.01
2022-08-09T06:44:18.252Z,1023.01
2022-08-09T06:46:04.947Z,1022.96
2022-08-09T06:46:39.453Z,1022.99
2022-08-09T06:47:17.831Z,1022.99
2022-08-09T06:48:17.816Z,1022.97
2022-08-09T06:49:28.956Z,1023.04
2022-08-09T06:50:19.325Z,1023.03
2022-08-09T06:51:17.765Z,1023.06
2022-08-09T06:52:17.773Z,1023.03
2022-08-09T06:53:17.731Z,1023.07
2022-08-09T06:54:17.711Z,1023.05
2022-08-09T06:55:17.708Z,1023.04
2022-08-09T06:56:17.681Z,1023.07
2022-08-09T06:57:17.680Z,1023.07
2022-08-09T06:58:40.590Z,1023.06
2022-08-09T07:00:48.871Z,1023.04
2022-08-09T07:00:55.411Z,1023.04
2022-08-09T07:01:17.706Z,1023.03
2022-08-09T07:02:17.636Z,1023.05
2022-08-09T07:03:17.577Z,1023.04
2022-08-09T07:04:20.060Z,1023.00
2022-08-09T07:05:17.545Z,1023.03
2022-08-09T07:06:17.508Z,1023.09
2022-08-09T07:07:58.664Z,1023.07
2022-08-09T07:08:17.476Z,1023.09
2022-08-09T07:09:53.455Z,1023.08
2022-08-09T07:10:29.648Z,1023.06
2022-08-09T07:11:23.636Z,1023.05
2022-08-09T07:12:18.567Z,1023.07
2022-08-09T07:13:18.793Z,1023.12
2022-08-09T07:14:17.376Z,1023.10
2022-08-09T07:15:54.103Z,1023.10
2022-08-09T07:16:41.951Z,1023.11
2022-08-09T07:17:17.324Z,1023.08
2022-08-09T07:18:17.317Z,1023.11
2022-08-09T07:19:22.879Z,1023.11
2022-08-09T07:20:17.302Z,1023.16
2022-08-09T07:21:17.265Z,1023.11
2022-08-09T07:22:17.276Z,1023.09
2022-08-09T07:23:18.490Z,1023.08
2022-08-09T07:24:17.228Z,1023.08
2022-08-09T07:25:17.195Z,1023.09
2022-08-09T07:26:17.180Z,1023.06
2022-08-09T07:27:26.531Z,1023.06
2022-08-09T07:28:19.212Z,1023.05
2022-08-09T07:29:17.128Z,1023.07
2022-08-09T07:30:17.138Z,1023.05
2022-08-09T07:31:17.098Z,1023.05
2022-08-09T07:32:17.081Z,1023.08
2022-08-09T07:33:17.080Z,1023.08
2022-08-09T07:34:19.483Z,1023.03
2022-08-09T07:35:17.022Z,1023.07
2022-08-09T07:36:17.018Z,1023.03
2022-08-09T07:37:16.996Z,1023.05
2022-08-09T07:38:16.983Z,1023.06
2022-08-09T07:39:20.454Z,1023.05
2022-08-09T07:40:18.741Z,1023.10
2022-08-09T07:41:17.052Z,1023.10
2022-08-09T07:42:17.175Z,1023.11
2022-08-09T07:43:17.263Z,1023.12
2022-08-09T07:44:16.879Z,1023.13
2022-08-09T07:45:23.734Z,1023.12
2022-08-09T07:46:17.189Z,1023.15
2022-08-09T07:47:16.833Z,1023.07
2022-08-09T07:48:25.742Z,1023.09
2022-08-09T07:49:16.804Z,1023.10
2022-08-09T07:50:16.806Z,1023.07
2022-08-09T07:52:06.259Z,1023.10
2022-08-09T07:52:17.852Z,1023.11
2022-08-09T07:53:16.810Z,1023.10
2022-08-09T07:54:27.511Z,1023.05
2022-08-09T07:55:16.706Z,1023.07
2022-08-09T07:56:26.796Z,1023.06
2022-08-09T07:57:16.674Z,1023.09
2022-08-09T07:58:16.670Z,1023.07
2022-08-09T07:59:25.244Z,1023.05
2022-08-09T08:00:20.865Z,1023.13
2022-08-09T08:01:16.658Z,1023.11
2022-08-09T08:02:19.220Z,1023.13
2022-08-09T08:03:16.577Z,1023.14
2022-08-09T08:04:16.567Z,1023.13
2022-08-09T08:05:18.686Z,1023.13
2022-08-09T08:06:21.095Z,1023.12
2022-08-09T08:08:42.623Z,1023.10
2022-08-09T08:09:02.219Z,1023.11
2022-08-09T08:09:34.461Z,1023.12
2022-08-09T08:10:18.419Z,1023.13
2022-08-09T08:12:24.019Z,1023.16
2022-08-09T08:12:28.236Z,1023.17
2022-08-09T08:13:16.418Z,1023.15
2022-08-09T08:14:16.402Z,1023.17
2022-08-09T08:15:17.187Z,1023.19
2022-08-09T08:16:31.821Z,1023.21
2022-08-09T08:17:35.164Z,1023.24
2022-08-09T08:18:16.500Z,1023.23
2022-08-09T08:19:17.390Z,1023.22
2022-08-09T08:20:16.304Z,1023.21
2022-08-09T08:21:16.288Z,1023.21
2022-08-09T08:22:16.275Z,1023.21
2022-08-09T08:23:17.729Z,1023.22
2022-08-09T08:24:16.517Z,1023.26
2022-08-09T08:25:16.221Z,1023.25
2022-08-09T08:26:16.207Z,1023.24
2022-08-09T08:27:17.284Z,1023.24
2022-08-09T08:28:17.957Z,1023.21
2022-08-09T08:29:20.242Z,1023.25
2022-08-09T08:30:16.160Z,1023.29
2022-08-09T08:31:16.133Z,1023.24
2022-08-09T08:32:24.302Z,1023.19
2022-08-09T08:33:24.013Z,1023.19
2022-08-09T08:34:16.085Z,1023.20
2022-08-09T08:35:18.268Z,1023.18
2022-08-09T08:36:28.229Z,1023.22
2022-08-09T08:37:16.036Z,1023.21
2022-08-09T08:38:16.023Z,1023.22
2022-08-09T08:39:16.037Z,1023.23
2022-08-09T08:40:16.020Z,1023.28
2022-08-09T08:41:16.009Z,1023.26
2022-08-09T08:42:16.594Z,1023.25
2022-08-09T08:43:15.942Z,1023.34
2022-08-09T08:44:15.934Z,1023.31
2022-08-09T08:45:15.913Z,1023.26
2022-08-09T08:46:32.351Z,1023.31
2022-08-09T08:47:15.921Z,1023.29
2022-08-09T08:48:16.896Z,1023.29
2022-08-09T08:49:19.049Z,1023.30
2022-08-09T08:50:17.945Z,1023.28
2022-08-09T08:51:15.846Z,1023.25
2022-08-09T08:52:35.066Z,1023.24
2022-08-09T08:53:21.960Z,1023.24
2022-08-09T08:54:20.274Z,1023.29
2022-08-09T08:55:23.040Z,1023.26
2022-08-09T08:56:25.006Z,1023.25
2022-08-09T08:57:15.738Z,1023.26
2022-08-09T08:58:15.751Z,1023.29
2022-08-09T08:59:18.955Z,1023.27
2022-08-09T09:00:20.893Z,1023.32
2022-08-09T09:01:20.957Z,1023.31
2022-08-09T09:02:31.003Z,1023.27
2022-08-09T09:03:23.054Z,1023.31
2022-08-09T09:04:15.646Z,1023.34
2022-08-09T09:05:15.617Z,1023.35
2022-08-09T09:06:15.603Z,1023.35
2022-08-09T09:07:15.604Z,1023.34
2022-08-09T09:08:30.666Z,1023.34
2022-08-09T09:09:21.057Z,1023.34
2022-08-09T09:10:15.546Z,1023.33
2022-08-09T09:11:19.761Z,1023.33
2022-08-09T09:12:16.682Z,1023.35
2022-08-09T09:13:15.519Z,1023.33
2022-08-09T09:14:15.793Z,1023.36
2022-08-09T09:15:28.662Z,1023.33
2022-08-09T09:16:15.457Z,1023.31
2022-08-09T09:17:16.578Z,1023.33
2022-08-09T09:18:15.427Z,1023.32
2022-08-09T09:19:37.256Z,1023.33
2022-08-09T09:20:15.966Z,1023.26
2022-08-09T09:21:15.381Z,1023.32
2022-08-09T09:22:15.838Z,1023.32
2022-08-09T09:23:15.358Z,1023.34
2022-08-09T09:24:21.841Z,1023.30
2022-08-09T09:26:03.711Z,1023.37
2022-08-09T09:26:15.340Z,1023.34
2022-08-09T09:28:03.563Z,1023.38
2022-08-09T09:28:39.216Z,1023.34
2022-08-09T09:29:17.151Z,1023.38
2022-08-09T09:30:38.033Z,1023.41
2022-08-09T09:31:17.606Z,1023.44
2022-08-09T09:32:16.012Z,1023.46
2022-08-09T09:33:17.357Z,1023.39
2022-08-09T09:34:18.006Z,1023.44
2022-08-09T09:35:15.921Z,1023.40
2022-08-09T09:36:21.055Z,1023.40
2022-08-09T09:37:15.157Z,1023.41
2022-08-09T09:38:27.872Z,1023.43
2022-08-09T09:39:15.159Z,1023.39
2022-08-09T09:40:17.581Z,1023.46
2022-08-09T09:41:15.120Z,1023.44
2022-08-09T09:42:15.106Z,1023.41
2022-08-09T09:43:15.083Z,1023.47
2022-08-09T09:44:25.157Z,1023.45
2022-08-09T09:45:26.823Z,1023.45
2022-08-09T09:47:15.067Z,1023.41
2022-08-09T09:48:15.027Z,1023.47
2022-08-09T09:49:15.008Z,1023.53
2022-08-09T09:50:17.010Z,1023.52
2022-08-09T09:51:25.853Z,1023.43
2022-08-09T09:52:33.710Z,1023.50
2022-08-09T09:53:14.981Z,1023.47
2022-08-09T09:54:20.517Z,1023.50
2022-08-09T09:55:27.524Z,1023.46
2022-08-09T09:56:19.692Z,1023.46
2022-08-09T09:58:04.023Z,1023.49
2022-08-09T09:58:16.126Z,1023.50
2022-08-09T09:59:16.166Z,1023.45
2022-08-09T10:00:14.887Z,1023.48
2022-08-09T10:01:37.399Z,1023.43
2022-08-09T10:02:14.887Z,1023.46
2022-08-09T10:03:14.904Z,1023.42
2022-08-09T10:04:16.138Z,1023.42
2022-08-09T10:05:14.850Z,1023.39
2022-08-09T10:06:14.831Z,1023.40
2022-08-09T10:07:14.845Z,1023.46
2022-08-09T10:08:27.343Z,1023.43
2022-08-09T10:09:23.411Z,1023.47
2022-08-09T10:10:14.797Z,1023.40
2022-08-09T10:12:00.395Z,1023.42
2022-08-09T10:12:28.408Z,1023.44
2022-08-09T10:13:42.824Z,1023.41
2022-08-09T10:14:14.782Z,1023.41
2022-08-09T10:15:17.649Z,1023.40
2022-08-09T10:16:58.025Z,1023.37
2022-08-09T10:17:40.721Z,1023.39
2022-08-09T10:18:14.740Z,1023.38
2022-08-09T10:19:14.747Z,1023.39
2022-08-09T10:20:15.301Z,1023.37
2022-08-09T10:21:14.712Z,1023.35
2022-08-09T10:22:14.698Z,1023.39
2022-08-09T10:23:17.494Z,1023.36
2022-08-09T10:24:16.072Z,1023.36
2022-08-09T10:25:15.313Z,1023.38
2022-08-09T10:26:14.683Z,1023.35
2022-08-09T10:27:17.104Z,1023.29
2022-08-09T10:28:14.663Z,1023.28
2022-08-09T10:29:36.035Z,1023.32
2022-08-09T10:32:38.615Z,1023.36
2022-08-09T10:33:29.478Z,1023.32
2022-08-09T10:34:32.322Z,1023.32
2022-08-09T10:35:14.606Z,1023.33
2022-08-09T10:36:14.613Z,1023.30
2022-08-09T10:37:14.605Z,1023.32
2022-08-09T10:38:34.402Z,1023.39
2022-08-09T10:39:19.208Z,1023.37
2022-08-09T10:40:34.969Z,1023.35
2022-08-09T10:41:14.565Z,1023.32
2022-08-09T10:42:14.557Z,1023.34
2022-08-09T10:43:14.562Z,1023.37
2022-08-09T10:44:14.532Z,1023.40
2022-08-09T10:45:16.890Z,1023.39
2022-08-09T10:46:21.065Z,1023.40
2022-08-09T10:48:12.655Z,1023.33
2022-08-09T10:48:29.358Z,1023.37
2022-08-09T10:49:14.511Z,1023.33
2022-08-09T10:50:14.997Z,1023.32
2022-08-09T10:51:14.482Z,1023.34
2022-08-09T10:52:20.608Z,1023.27
2022-08-09T10:53:14.465Z,1023.28
2022-08-09T10:54:14.469Z,1023.32
2022-08-09T10:55:14.449Z,1023.28
2022-08-09T10:56:14.450Z,1023.28
2022-08-09T10:57:14.458Z,1023.27
2022-08-09T10:58:17.232Z,1023.28
2022-08-09T10:59:14.502Z,1023.34
2022-08-09T11:00:14.426Z,1023.24
2022-08-09T11:03:06.683Z,1023.30
2022-08-09T11:03:15.112Z,1023.22
2022-08-09T11:03:49.478Z,1023.23
2022-08-09T11:04:19.673Z,1023.24
2022-08-09T11:05:25.359Z,1023.25
2022-08-09T11:06:14.377Z,1023.29
2022-08-09T11:07:14.366Z,1023.27
2022-08-09T11:08:14.408Z,1023.24
2022-08-09T11:09:16.194Z,1023.22
2022-08-09T11:10:14.343Z,1023.25
2022-08-09T11:11:14.349Z,1023.26
2022-08-09T11:12:14.345Z,1023.23
2022-08-09T11:13:49.063Z,1023.22
2022-08-09T11:14:16.381Z,1023.23
2022-08-09T11:15:18.412Z,1023.26
2022-08-09T11:16:14.346Z,1023.23
2022-08-09T11:17:14.285Z,1023.23
2022-08-09T11:18:14.282Z,1023.18
2022-08-09T11:19:14.284Z,1023.19
2022-08-09T11:20:22.147Z,1023.23
2022-08-09T11:21:14.259Z,1023.21
2022-08-09T11:22:24.201Z,1023.22
2022-08-09T11:23:14.240Z,1023.14
2022-08-09T11:24:14.236Z,1023.15
2022-08-09T11:25:14.721Z,1023.17
2022-08-09T11:26:14.245Z,1023.20
2022-08-09T11:27:14.220Z,1023.19
2022-08-09T11:28:30.720Z,1023.13
2022-08-09T11:29:14.208Z,1023.12
2022-08-09T11:30:32.796Z,1023.12
2022-08-09T11:31:14.199Z,1023.05
2022-08-09T11:32:14.203Z,1023.06
2022-08-09T11:33:14.178Z,1023.10
2022-08-09T11:34:14.160Z,1023.08
2022-08-09T11:35:14.158Z,1023.05
2022-08-09T11:36:14.828Z,1023.03
2022-08-09T11:37:18.388Z,1023.07
2022-08-09T11:38:14.124Z,1023.06
2022-08-09T11:39:14.132Z,1023.01
2022-08-09T11:40:14.109Z,1023.03
2022-08-09T11:41:14.105Z,1023.08
2022-08-09T11:42:14.628Z,1023.02
2022-08-09T11:43:14.094Z,1023.08
2022-08-09T11:44:14.079Z,1023.01
2022-08-09T11:45:14.078Z,1023.07
2022-08-09T11:46:26.494Z,1023.04
2022-08-09T11:47:14.354Z,1022.97
2022-08-09T11:48:19.414Z,1022.98
2022-08-09T11:49:17.120Z,1023.05
2022-08-09T11:50:56.023Z,1023.01
2022-08-09T11:52:49.585Z,1023.00
2022-08-09T11:53:00.786Z,1023.04
2022-08-09T11:53:21.469Z,1023.01
2022-08-09T11:54:14.705Z,1023.06
2022-08-09T11:55:13.994Z,1023.03
2022-08-09T11:56:13.997Z,1022.96
2022-08-09T11:57:13.982Z,1022.99
2022-08-09T11:58:13.975Z,1023.01
2022-08-09T11:59:13.970Z,1023.03
2022-08-09T12:00:16.329Z,1023.10
2022-08-09T12:01:15.626Z,1023.12
2022-08-09T12:02:17.401Z,1023.12
2022-08-09T12:03:56.113Z,1023.13
2022-08-09T12:04:23.854Z,1023.13
2022-08-09T12:05:17.800Z,1023.16
2022-08-09T12:06:13.942Z,1023.12
2022-08-09T12:07:14.259Z,1023.12
2022-08-09T12:08:19.769Z,1023.13